sensor_id;sensor_type;location;lat;lon;timestamp;temperature;humidity
69387;SHT31;56575;48.942;8.404;2022-10-16T00:01:08;16.30;94.01
69387;SHT31;56575;48.942;8.404;2022-10-16T00:03:34;16.30;94.07
69387;SHT31;56575;48.942;8.404;2022-10-16T00:06:01;16.31;94.12
69387;SHT31;56575;48.942;8.404;2022-10-16T00:08:26;16.30;94.01
69387;SHT31;56575;48.942;8.404;2022-10-16T00:10:52;16.29;94.04
69387;SHT31;56575;48.942;8.404;2022-10-16T00:13:17;16.31;94.12
69387;SHT31;56575;48.942;8.404;2022-10-16T00:15:44;16.33;94.15
69387;SHT31;56575;48.942;8.404;2022-10-16T00:18:11;16.34;94.15
69387;SHT31;56575;48.942;8.404;2022-10-16T00:20:37;16.31;94.57
69387;SHT31;56575;48.942;8.404;2022-10-16T00:23:04;16.31;94.55
69387;SHT31;56575;48.942;8.404;2022-10-16T00:25:30;16.29;94.70
69387;SHT31;56575;48.942;8.404;2022-10-16T00:27:58;16.29;94.49
69387;SHT31;56575;48.942;8.404;2022-10-16T00:30:23;16.29;94.66
69387;SHT31;56575;48.942;8.404;2022-10-16T00:32:49;16.27;94.74
69387;SHT31;56575;48.942;8.404;2022-10-16T00:35:14;16.26;94.56
69387;SHT31;56575;48.942;8.404;2022-10-16T00:37:40;16.27;94.68
69387;SHT31;56575;48.942;8.404;2022-10-16T00:40:05;16.23;94.71
69387;SHT31;56575;48.942;8.404;2022-10-16T00:42:31;16.23;94.54
69387;SHT31;56575;48.942;8.404;2022-10-16T00:44:57;16.26;94.74
69387;SHT31;56575;48.942;8.404;2022-10-16T00:47:39;16.21;94.73
69387;SHT31;56575;48.942;8.404;2022-10-16T00:50:28;16.23;94.74
69387;SHT31;56575;48.942;8.404;2022-10-16T00:52:54;16.21;95.08
69387;SHT31;56575;48.942;8.404;2022-10-16T00:55:21;16.23;94.99
69387;SHT31;56575;48.942;8.404;2022-10-16T00:57:48;16.23;94.99
69387;SHT31;56575;48.942;8.404;2022-10-16T01:00:18;16.23;94.95
69387;SHT31;56575;48.942;8.404;2022-10-16T01:02:44;16.21;95.18
69387;SHT31;56575;48.942;8.404;2022-10-16T01:05:09;16.24;94.97
69387;SHT31;56575;48.942;8.404;2022-10-16T01:13:04;16.20;94.99
69387;SHT31;56575;48.942;8.404;2022-10-16T01:16:24;16.21;94.87
69387;SHT31;56575;48.942;8.404;2022-10-16T01:18:31;16.19;95.02
69387;SHT31;56575;48.942;8.404;2022-10-16T01:26:37;16.12;95.28
69387;SHT31;56575;48.942;8.404;2022-10-16T01:29:16;16.13;95.16
69387;SHT31;56575;48.942;8.404;2022-10-16T01:31:48;16.13;95.17
69387;SHT31;56575;48.942;8.404;2022-10-16T01:34:21;16.13;95.20
69387;SHT31;56575;48.942;8.404;2022-10-16T01:36:55;16.12;95.13
69387;SHT31;56575;48.942;8.404;2022-10-16T01:39:26;16.13;95.21
69387;SHT31;56575;48.942;8.404;2022-10-16T01:42:16;16.13;95.27
69387;SHT31;56575;48.942;8.404;2022-10-16T01:44:45;16.09;95.08
69387;SHT31;56575;48.942;8.404;2022-10-16T01:47:13;16.09;95.15
69387;SHT31;56575;48.942;8.404;2022-10-16T01:49:39;16.09;95.16
69387;SHT31;56575;48.942;8.404;2022-10-16T01:52:09;16.09;94.86
69387;SHT31;56575;48.942;8.404;2022-10-16T01:54:37;16.08;95.13
69387;SHT31;56575;48.942;8.404;2022-10-16T01:57:04;16.08;94.96
69387;SHT31;56575;48.942;8.404;2022-10-16T01:59:33;16.06;95.20
69387;SHT31;56575;48.942;8.404;2022-10-16T02:02:05;16.06;95.26
69387;SHT31;56575;48.942;8.404;2022-10-16T02:04:34;16.02;95.15
69387;SHT31;56575;48.942;8.404;2022-10-16T02:07:01;16.05;95.44
69387;SHT31;56575;48.942;8.404;2022-10-16T02:09:26;16.01;95.07
69387;SHT31;56575;48.942;8.404;2022-10-16T02:11:54;15.96;95.06
69387;SHT31;56575;48.942;8.404;2022-10-16T02:14:21;15.96;95.37
69387;SHT31;56575;48.942;8.404;2022-10-16T02:16:50;15.96;95.37
69387;SHT31;56575;48.942;8.404;2022-10-16T02:19:17;15.96;95.36
69387;SHT31;56575;48.942;8.404;2022-10-16T02:21:51;15.98;95.38
69387;SHT31;56575;48.942;8.404;2022-10-16T02:24:32;15.96;95.31
69387;SHT31;56575;48.942;8.404;2022-10-16T02:27:05;15.95;95.46
69387;SHT31;56575;48.942;8.404;2022-10-16T02:29:35;15.93;95.41
69387;SHT31;56575;48.942;8.404;2022-10-16T02:32:05;15.92;95.34
69387;SHT31;56575;48.942;8.404;2022-10-16T02:34:33;15.91;95.35
69387;SHT31;56575;48.942;8.404;2022-10-16T02:37:01;15.88;95.37
69387;SHT31;56575;48.942;8.404;2022-10-16T02:39:27;15.86;95.44
69387;SHT31;56575;48.942;8.404;2022-10-16T02:41:53;15.82;95.27
69387;SHT31;56575;48.942;8.404;2022-10-16T02:44:19;15.84;95.57
69387;SHT31;56575;48.942;8.404;2022-10-16T02:46:44;15.84;95.68
69387;SHT31;56575;48.942;8.404;2022-10-16T02:49:09;15.82;95.56
69387;SHT31;56575;48.942;8.404;2022-10-16T02:51:35;15.79;95.48
69387;SHT31;56575;48.942;8.404;2022-10-16T02:54:01;15.82;95.67
69387;SHT31;56575;48.942;8.404;2022-10-16T02:56:27;15.78;95.66
69387;SHT31;56575;48.942;8.404;2022-10-16T02:58:52;15.79;95.61
69387;SHT31;56575;48.942;8.404;2022-10-16T03:01:17;15.81;95.65
69387;SHT31;56575;48.942;8.404;2022-10-16T03:03:43;15.81;95.55
69387;SHT31;56575;48.942;8.404;2022-10-16T03:06:08;15.79;95.41
69387;SHT31;56575;48.942;8.404;2022-10-16T03:08:34;15.78;95.47
69387;SHT31;56575;48.942;8.404;2022-10-16T03:10:59;15.81;95.50
69387;SHT31;56575;48.942;8.404;2022-10-16T03:13:24;15.77;95.41
69387;SHT31;56575;48.942;8.404;2022-10-16T03:15:50;15.74;95.24
69387;SHT31;56575;48.942;8.404;2022-10-16T03:18:15;15.74;95.37
69387;SHT31;56575;48.942;8.404;2022-10-16T03:20:42;15.74;95.52
69387;SHT31;56575;48.942;8.404;2022-10-16T03:23:08;15.71;95.53
69387;SHT31;56575;48.942;8.404;2022-10-16T03:25:33;15.72;95.51
69387;SHT31;56575;48.942;8.404;2022-10-16T03:27:59;15.72;95.71
69387;SHT31;56575;48.942;8.404;2022-10-16T03:30:24;15.71;95.40
69387;SHT31;56575;48.942;8.404;2022-10-16T03:32:49;15.71;95.54
69387;SHT31;56575;48.942;8.404;2022-10-16T03:35:19;15.68;95.54
69387;SHT31;56575;48.942;8.404;2022-10-16T03:37:45;15.74;95.65
69387;SHT31;56575;48.942;8.404;2022-10-16T03:40:10;15.71;95.44
69387;SHT31;56575;48.942;8.404;2022-10-16T03:42:36;15.71;95.47
69387;SHT31;56575;48.942;8.404;2022-10-16T03:45:01;15.72;95.38
69387;SHT31;56575;48.942;8.404;2022-10-16T03:47:26;15.74;95.59
69387;SHT31;56575;48.942;8.404;2022-10-16T03:49:52;15.74;95.40
69387;SHT31;56575;48.942;8.404;2022-10-16T03:52:17;15.72;95.42
69387;SHT31;56575;48.942;8.404;2022-10-16T03:54:43;15.74;95.57
69387;SHT31;56575;48.942;8.404;2022-10-16T03:57:08;15.74;95.33
69387;SHT31;56575;48.942;8.404;2022-10-16T03:59:34;15.69;95.45
69387;SHT31;56575;48.942;8.404;2022-10-16T04:01:59;15.72;95.53
69387;SHT31;56575;48.942;8.404;2022-10-16T04:04:24;15.71;95.46
69387;SHT31;56575;48.942;8.404;2022-10-16T04:06:50;15.72;95.46
69387;SHT31;56575;48.942;8.404;2022-10-16T04:09:15;15.68;95.48
69387;SHT31;56575;48.942;8.404;2022-10-16T04:11:41;15.69;95.41
69387;SHT31;56575;48.942;8.404;2022-10-16T04:14:06;15.68;95.31
69387;SHT31;56575;48.942;8.404;2022-10-16T04:16:32;15.68;95.47
69387;SHT31;56575;48.942;8.404;2022-10-16T04:18:57;15.62;95.25
69387;SHT31;56575;48.942;8.404;2022-10-16T04:21:22;15.64;95.41
69387;SHT31;56575;48.942;8.404;2022-10-16T04:23:48;15.62;95.43
69387;SHT31;56575;48.942;8.404;2022-10-16T04:26:14;15.64;95.48
69387;SHT31;56575;48.942;8.404;2022-10-16T04:28:39;15.64;95.48
69387;SHT31;56575;48.942;8.404;2022-10-16T04:31:05;15.61;95.54
69387;SHT31;56575;48.942;8.404;2022-10-16T04:33:31;15.65;95.49
69387;SHT31;56575;48.942;8.404;2022-10-16T04:36:01;15.65;95.57
69387;SHT31;56575;48.942;8.404;2022-10-16T04:38:27;15.65;95.49
69387;SHT31;56575;48.942;8.404;2022-10-16T04:40:52;15.68;95.60
69387;SHT31;56575;48.942;8.404;2022-10-16T04:43:18;15.67;95.42
69387;SHT31;56575;48.942;8.404;2022-10-16T04:45:44;15.67;95.26
69387;SHT31;56575;48.942;8.404;2022-10-16T04:48:09;15.69;95.49
69387;SHT31;56575;48.942;8.404;2022-10-16T04:50:35;15.65;95.51
69387;SHT31;56575;48.942;8.404;2022-10-16T04:53:00;15.65;95.38
69387;SHT31;56575;48.942;8.404;2022-10-16T04:55:25;15.67;95.44
69387;SHT31;56575;48.942;8.404;2022-10-16T04:57:51;15.67;95.29
69387;SHT31;56575;48.942;8.404;2022-10-16T05:00:16;15.64;95.24
69387;SHT31;56575;48.942;8.404;2022-10-16T05:02:42;15.64;95.21
69387;SHT31;56575;48.942;8.404;2022-10-16T05:05:07;15.64;95.38
69387;SHT31;56575;48.942;8.404;2022-10-16T05:07:33;15.62;95.41
69387;SHT31;56575;48.942;8.404;2022-10-16T05:09:58;15.59;95.37
69387;SHT31;56575;48.942;8.404;2022-10-16T05:12:23;15.61;95.44
69387;SHT31;56575;48.942;8.404;2022-10-16T05:14:49;15.61;95.36
69387;SHT31;56575;48.942;8.404;2022-10-16T05:17:14;15.61;95.32
69387;SHT31;56575;48.942;8.404;2022-10-16T05:19:40;15.61;95.35
69387;SHT31;56575;48.942;8.404;2022-10-16T05:22:05;15.58;95.33
69387;SHT31;56575;48.942;8.404;2022-10-16T05:24:30;15.58;95.11
69387;SHT31;56575;48.942;8.404;2022-10-16T05:26:56;15.57;95.13
69387;SHT31;56575;48.942;8.404;2022-10-16T05:29:21;15.55;94.85
69387;SHT31;56575;48.942;8.404;2022-10-16T05:31:50;15.54;95.13
69387;SHT31;56575;48.942;8.404;2022-10-16T05:34:15;15.53;95.17
69387;SHT31;56575;48.942;8.404;2022-10-16T05:36:40;15.54;95.12
69387;SHT31;56575;48.942;8.404;2022-10-16T05:39:06;15.50;95.38
69387;SHT31;56575;48.942;8.404;2022-10-16T05:41:31;15.51;95.26
69387;SHT31;56575;48.942;8.404;2022-10-16T05:43:56;15.51;95.11
69387;SHT31;56575;48.942;8.404;2022-10-16T05:46:22;15.50;95.10
69387;SHT31;56575;48.942;8.404;2022-10-16T05:48:47;15.50;95.45
69387;SHT31;56575;48.942;8.404;2022-10-16T05:51:14;15.47;95.35
69387;SHT31;56575;48.942;8.404;2022-10-16T05:53:40;15.51;95.32
69387;SHT31;56575;48.942;8.404;2022-10-16T05:56:08;15.53;95.27
69387;SHT31;56575;48.942;8.404;2022-10-16T05:58:35;15.50;95.03
69387;SHT31;56575;48.942;8.404;2022-10-16T06:01:07;15.53;95.05
69387;SHT31;56575;48.942;8.404;2022-10-16T06:03:34;15.51;95.00
69387;SHT31;56575;48.942;8.404;2022-10-16T06:06:16;15.53;94.92
69387;SHT31;56575;48.942;8.404;2022-10-16T06:08:43;15.53;94.92
69387;SHT31;56575;48.942;8.404;2022-10-16T06:11:12;15.54;94.72
69387;SHT31;56575;48.942;8.404;2022-10-16T06:13:38;15.51;94.76
69387;SHT31;56575;48.942;8.404;2022-10-16T06:16:07;15.50;94.81
69387;SHT31;56575;48.942;8.404;2022-10-16T06:18:33;15.53;94.84
69387;SHT31;56575;48.942;8.404;2022-10-16T06:20:58;15.51;94.88
69387;SHT31;56575;48.942;8.404;2022-10-16T06:23:24;15.54;94.92
69387;SHT31;56575;48.942;8.404;2022-10-16T06:25:50;15.54;94.96
69387;SHT31;56575;48.942;8.404;2022-10-16T06:28:16;15.54;95.01
69387;SHT31;56575;48.942;8.404;2022-10-16T06:30:41;15.54;94.70
69387;SHT31;56575;48.942;8.404;2022-10-16T06:33:09;15.57;94.73
69387;SHT31;56575;48.942;8.404;2022-10-16T06:35:35;15.57;94.68
69387;SHT31;56575;48.942;8.404;2022-10-16T06:38:00;15.58;94.51
69387;SHT31;56575;48.942;8.404;2022-10-16T06:40:26;15.59;94.69
69387;SHT31;56575;48.942;8.404;2022-10-16T06:42:54;15.61;94.46
69387;SHT31;56575;48.942;8.404;2022-10-16T06:45:20;15.62;94.28
69387;SHT31;56575;48.942;8.404;2022-10-16T06:47:45;15.65;94.53
69387;SHT31;56575;48.942;8.404;2022-10-16T06:50:11;15.64;94.64
69387;SHT31;56575;48.942;8.404;2022-10-16T06:52:36;15.62;94.20
69387;SHT31;56575;48.942;8.404;2022-10-16T06:55:02;15.68;94.51
69387;SHT31;56575;48.942;8.404;2022-10-16T06:57:28;15.71;94.36
69387;SHT31;56575;48.942;8.404;2022-10-16T06:59:53;15.72;94.11
69387;SHT31;56575;48.942;8.404;2022-10-16T07:02:19;15.75;94.01
69387;SHT31;56575;48.942;8.404;2022-10-16T07:04:44;15.78;94.00
69387;SHT31;56575;48.942;8.404;2022-10-16T07:07:10;15.79;93.96
69387;SHT31;56575;48.942;8.404;2022-10-16T07:09:35;15.88;93.97
69387;SHT31;56575;48.942;8.404;2022-10-16T07:12:01;15.92;93.84
69387;SHT31;56575;48.942;8.404;2022-10-16T07:14:26;15.98;93.54
69387;SHT31;56575;48.942;8.404;2022-10-16T07:16:52;16.08;93.58
69387;SHT31;56575;48.942;8.404;2022-10-16T07:19:17;16.14;93.16
69387;SHT31;56575;48.942;8.404;2022-10-16T07:21:43;16.23;92.86
69387;SHT31;56575;48.942;8.404;2022-10-16T07:24:14;16.29;92.55
69387;SHT31;56575;48.942;8.404;2022-10-16T07:26:40;16.37;92.58
69387;SHT31;56575;48.942;8.404;2022-10-16T07:29:11;16.40;92.28
69387;SHT31;56575;48.942;8.404;2022-10-16T07:31:38;16.43;91.73
69387;SHT31;56575;48.942;8.404;2022-10-16T07:34:04;16.48;91.71
69387;SHT31;56575;48.942;8.404;2022-10-16T07:36:29;16.51;91.78
69387;SHT31;56575;48.942;8.404;2022-10-16T07:38:55;16.53;91.58
69387;SHT31;56575;48.942;8.404;2022-10-16T07:41:20;16.56;91.12
69387;SHT31;56575;48.942;8.404;2022-10-16T07:43:46;16.60;90.85
69387;SHT31;56575;48.942;8.404;2022-10-16T07:46:12;16.65;90.78
69387;SHT31;56575;48.942;8.404;2022-10-16T07:48:38;16.72;90.71
69387;SHT31;56575;48.942;8.404;2022-10-16T07:51:05;16.74;90.77
69387;SHT31;56575;48.942;8.404;2022-10-16T07:53:31;16.79;90.55
69387;SHT31;56575;48.942;8.404;2022-10-16T07:56:01;16.84;90.85
69387;SHT31;56575;48.942;8.404;2022-10-16T07:58:28;16.88;90.90
69387;SHT31;56575;48.942;8.404;2022-10-16T08:00:54;16.89;90.96
69387;SHT31;56575;48.942;8.404;2022-10-16T08:03:20;16.93;90.90
69387;SHT31;56575;48.942;8.404;2022-10-16T08:05:45;17.01;90.93
69387;SHT31;56575;48.942;8.404;2022-10-16T08:08:14;17.03;90.60
69387;SHT31;56575;48.942;8.404;2022-10-16T08:10:40;17.05;90.58
69387;SHT31;56575;48.942;8.404;2022-10-16T08:13:05;17.09;90.78
69387;SHT31;56575;48.942;8.404;2022-10-16T08:15:31;17.13;90.73
69387;SHT31;56575;48.942;8.404;2022-10-16T08:18:00;17.19;90.63
69387;SHT31;56575;48.942;8.404;2022-10-16T08:20:26;17.24;90.16
69387;SHT31;56575;48.942;8.404;2022-10-16T08:22:52;17.29;90.02
69387;SHT31;56575;48.942;8.404;2022-10-16T08:25:17;17.33;89.79
69387;SHT31;56575;48.942;8.404;2022-10-16T08:27:43;17.31;90.00
69387;SHT31;56575;48.942;8.404;2022-10-16T08:30:10;17.29;90.21
69387;SHT31;56575;48.942;8.404;2022-10-16T08:32:35;17.27;90.15
69387;SHT31;56575;48.942;8.404;2022-10-16T08:35:01;17.29;90.39
69387;SHT31;56575;48.942;8.404;2022-10-16T08:37:31;17.33;90.21
69387;SHT31;56575;48.942;8.404;2022-10-16T08:39:56;17.39;90.11
69387;SHT31;56575;48.942;8.404;2022-10-16T08:45:19;17.65;89.94
69387;SHT31;56575;48.942;8.404;2022-10-16T08:47:53;17.82;89.60
69387;SHT31;56575;48.942;8.404;2022-10-16T08:50:25;17.93;87.95
69387;SHT31;56575;48.942;8.404;2022-10-16T08:52:53;18.09;87.88
69387;SHT31;56575;48.942;8.404;2022-10-16T08:55:38;18.29;86.85
69387;SHT31;56575;48.942;8.404;2022-10-16T08:58:17;18.37;85.84
69387;SHT31;56575;48.942;8.404;2022-10-16T09:00:46;18.47;85.78
69387;SHT31;56575;48.942;8.404;2022-10-16T09:03:24;18.54;84.76
69387;SHT31;56575;48.942;8.404;2022-10-16T09:06:21;18.63;84.20
69387;SHT31;56575;48.942;8.404;2022-10-16T09:20:28;19.15;83.65
69387;SHT31;56575;48.942;8.404;2022-10-16T09:23:10;19.15;83.58
69387;SHT31;56575;48.942;8.404;2022-10-16T09:25:39;19.16;82.77
69387;SHT31;56575;48.942;8.404;2022-10-16T09:28:08;19.13;83.39
69387;SHT31;56575;48.942;8.404;2022-10-16T09:30:34;19.13;83.94
69387;SHT31;56575;48.942;8.404;2022-10-16T09:33:00;19.13;83.91
69387;SHT31;56575;48.942;8.404;2022-10-16T09:35:32;19.20;83.14
69387;SHT31;56575;48.942;8.404;2022-10-16T09:37:58;19.30;83.16
69387;SHT31;56575;48.942;8.404;2022-10-16T09:43:00;19.56;81.84
69387;SHT31;56575;48.942;8.404;2022-10-16T09:45:26;19.63;81.39
69387;SHT31;56575;48.942;8.404;2022-10-16T09:47:52;19.71;81.18
69387;SHT31;56575;48.942;8.404;2022-10-16T09:50:26;19.78;80.51
69387;SHT31;56575;48.942;8.404;2022-10-16T09:53:24;19.95;79.98
69387;SHT31;56575;48.942;8.404;2022-10-16T09:55:54;20.11;80.29
69387;SHT31;56575;48.942;8.404;2022-10-16T09:58:22;20.19;78.52
69387;SHT31;56575;48.942;8.404;2022-10-16T10:00:51;20.36;78.61
69387;SHT31;56575;48.942;8.404;2022-10-16T10:03:46;20.37;78.28
69387;SHT31;56575;48.942;8.404;2022-10-16T10:06:21;20.29;77.90
69387;SHT31;56575;48.942;8.404;2022-10-16T10:08:59;20.18;78.03
69387;SHT31;56575;48.942;8.404;2022-10-16T10:11:47;20.20;78.78
69387;SHT31;56575;48.942;8.404;2022-10-16T10:16:48;20.36;77.75
69387;SHT31;56575;48.942;8.404;2022-10-16T10:19:22;20.46;76.71
69387;SHT31;56575;48.942;8.404;2022-10-16T10:21:48;20.54;75.74
69387;SHT31;56575;48.942;8.404;2022-10-16T10:24:16;20.71;75.18
69387;SHT31;56575;48.942;8.404;2022-10-16T10:26:47;20.96;74.65
69387;SHT31;56575;48.942;8.404;2022-10-16T10:29:25;21.28;72.59
69387;SHT31;56575;48.942;8.404;2022-10-16T10:32:04;21.85;71.23
69387;SHT31;56575;48.942;8.404;2022-10-16T10:34:54;22.98;67.68
69387;SHT31;56575;48.942;8.404;2022-10-16T10:37:51;24.15;64.00
69387;SHT31;56575;48.942;8.404;2022-10-16T10:40:45;24.39;62.75
69387;SHT31;56575;48.942;8.404;2022-10-16T10:43:42;24.24;62.77
69387;SHT31;56575;48.942;8.404;2022-10-16T10:46:16;24.18;64.00
69387;SHT31;56575;48.942;8.404;2022-10-16T10:51:31;23.88;64.54
69387;SHT31;56575;48.942;8.404;2022-10-16T11:03:45;22.33;67.53
69387;SHT31;56575;48.942;8.404;2022-10-16T11:06:06;21.99;68.77
69387;SHT31;56575;48.942;8.404;2022-10-16T11:08:35;21.85;67.51
69387;SHT31;56575;48.942;8.404;2022-10-16T11:13:39;21.85;69.60
69387;SHT31;56575;48.942;8.404;2022-10-16T11:16:17;21.91;69.96
69387;SHT31;56575;48.942;8.404;2022-10-16T11:21:48;22.83;67.75
69387;SHT31;56575;48.942;8.404;2022-10-16T11:24:35;23.59;65.55
69387;SHT31;56575;48.942;8.404;2022-10-16T11:27:08;24.39;61.65
69387;SHT31;56575;48.942;8.404;2022-10-16T11:29:35;25.42;58.75
69387;SHT31;56575;48.942;8.404;2022-10-16T11:32:17;27.07;55.89
69387;SHT31;56575;48.942;8.404;2022-10-16T11:34:55;27.38;53.00
69387;SHT31;56575;48.942;8.404;2022-10-16T11:37:24;27.07;53.45
69387;SHT31;56575;48.942;8.404;2022-10-16T11:39:54;26.29;54.99
69387;SHT31;56575;48.942;8.404;2022-10-16T11:42:32;25.45;56.33
69387;SHT31;56575;48.942;8.404;2022-10-16T11:50:57;25.54;57.34
69387;SHT31;56575;48.942;8.404;2022-10-16T11:53:44;25.32;57.23
69387;SHT31;56575;48.942;8.404;2022-10-16T11:56:18;25.06;60.80
69387;SHT31;56575;48.942;8.404;2022-10-16T12:01:37;24.40;59.63
69387;SHT31;56575;48.942;8.404;2022-10-16T12:07:14;23.98;61.61
69387;SHT31;56575;48.942;8.404;2022-10-16T12:09:42;23.74;61.72
69387;SHT31;56575;48.942;8.404;2022-10-16T12:12:43;23.39;61.81
69387;SHT31;56575;48.942;8.404;2022-10-16T12:15:28;23.09;63.31
69387;SHT31;56575;48.942;8.404;2022-10-16T12:17:55;22.95;64.32
69387;SHT31;56575;48.942;8.404;2022-10-16T12:20:32;22.75;65.49
69387;SHT31;56575;48.942;8.404;2022-10-16T12:23:04;22.65;66.83
69387;SHT31;56575;48.942;8.404;2022-10-16T12:25:33;22.56;65.99
69387;SHT31;56575;48.942;8.404;2022-10-16T12:28:04;22.52;66.85
69387;SHT31;56575;48.942;8.404;2022-10-16T12:30:33;22.42;66.57
69387;SHT31;56575;48.942;8.404;2022-10-16T12:33:04;22.35;67.80
69387;SHT31;56575;48.942;8.404;2022-10-16T12:35:33;22.33;67.55
69387;SHT31;56575;48.942;8.404;2022-10-16T12:38:13;22.39;67.81
69387;SHT31;56575;48.942;8.404;2022-10-16T12:40:41;22.43;67.35
69387;SHT31;56575;48.942;8.404;2022-10-16T12:43:26;22.45;68.20
69387;SHT31;56575;48.942;8.404;2022-10-16T12:48:44;22.52;67.49
69387;SHT31;56575;48.942;8.404;2022-10-16T12:53:45;22.67;65.69
69387;SHT31;56575;48.942;8.404;2022-10-16T12:56:24;22.63;66.66
69387;SHT31;56575;48.942;8.404;2022-10-16T12:59:01;22.57;66.53
69387;SHT31;56575;48.942;8.404;2022-10-16T13:01:40;22.46;66.01
69387;SHT31;56575;48.942;8.404;2022-10-16T13:04:22;22.39;66.23
69387;SHT31;56575;48.942;8.404;2022-10-16T13:10:06;22.22;67.94
69387;SHT31;56575;48.942;8.404;2022-10-16T13:13:06;22.13;69.11
69387;SHT31;56575;48.942;8.404;2022-10-16T13:16:00;22.04;68.24
69387;SHT31;56575;48.942;8.404;2022-10-16T13:21:19;21.95;69.74
69387;SHT31;56575;48.942;8.404;2022-10-16T13:26:41;21.91;70.12
69387;SHT31;56575;48.942;8.404;2022-10-16T13:29:09;21.95;69.06
69387;SHT31;56575;48.942;8.404;2022-10-16T13:31:38;21.98;68.57
69387;SHT31;56575;48.942;8.404;2022-10-16T13:34:05;21.95;68.88
69387;SHT31;56575;48.942;8.404;2022-10-16T13:36:42;21.92;69.75
69387;SHT31;56575;48.942;8.404;2022-10-16T13:39:22;21.87;69.74
69387;SHT31;56575;48.942;8.404;2022-10-16T13:42:07;21.84;70.36
69387;SHT31;56575;48.942;8.404;2022-10-16T13:44:47;21.77;71.14
69387;SHT31;56575;48.942;8.404;2022-10-16T13:47:24;21.71;71.11
69387;SHT31;56575;48.942;8.404;2022-10-16T13:50:12;21.61;72.50
69387;SHT31;56575;48.942;8.404;2022-10-16T13:52:38;21.57;73.40
69387;SHT31;56575;48.942;8.404;2022-10-16T13:55:14;21.50;73.51
69387;SHT31;56575;48.942;8.404;2022-10-16T13:57:40;21.45;74.70
69387;SHT31;56575;48.942;8.404;2022-10-16T14:00:21;21.37;74.83
69387;SHT31;56575;48.942;8.404;2022-10-16T14:02:53;21.30;75.43
69387;SHT31;56575;48.942;8.404;2022-10-16T14:05:20;21.26;74.74
69387;SHT31;56575;48.942;8.404;2022-10-16T14:07:49;21.20;75.93
69387;SHT31;56575;48.942;8.404;2022-10-16T14:10:42;21.16;76.37
69387;SHT31;56575;48.942;8.404;2022-10-16T14:13:08;21.18;76.85
69387;SHT31;56575;48.942;8.404;2022-10-16T14:15:38;21.25;76.92
69387;SHT31;56575;48.942;8.404;2022-10-16T14:18:04;21.37;76.93
69387;SHT31;56575;48.942;8.404;2022-10-16T14:20:32;21.49;77.45
69387;SHT31;56575;48.942;8.404;2022-10-16T14:23:04;21.99;76.19
69387;SHT31;56575;48.942;8.404;2022-10-16T14:25:32;22.43;70.88
69387;SHT31;56575;48.942;8.404;2022-10-16T14:30:50;22.87;74.33
69387;SHT31;56575;48.942;8.404;2022-10-16T14:36:14;22.77;74.15
69387;SHT31;56575;48.942;8.404;2022-10-16T14:38:43;22.68;73.78
69387;SHT31;56575;48.942;8.404;2022-10-16T14:41:13;22.65;73.69
69387;SHT31;56575;48.942;8.404;2022-10-16T14:43:42;22.86;72.94
69387;SHT31;56575;48.942;8.404;2022-10-16T14:46:19;23.08;73.80
69387;SHT31;56575;48.942;8.404;2022-10-16T14:48:48;23.35;72.03
69387;SHT31;56575;48.942;8.404;2022-10-16T14:51:18;23.62;72.32
69387;SHT31;56575;48.942;8.404;2022-10-16T14:53:43;23.83;72.37
69387;SHT31;56575;48.942;8.404;2022-10-16T14:56:17;24.01;70.85
69387;SHT31;56575;48.942;8.404;2022-10-16T14:58:43;24.17;68.91
69387;SHT31;56575;48.942;8.404;2022-10-16T15:01:10;24.43;69.41
69387;SHT31;56575;48.942;8.404;2022-10-16T15:03:37;24.63;68.08
69387;SHT31;56575;48.942;8.404;2022-10-16T15:06:02;24.79;67.93
69387;SHT31;56575;48.942;8.404;2022-10-16T15:08:28;24.83;67.15
69387;SHT31;56575;48.942;8.404;2022-10-16T15:10:53;25.07;65.78
69387;SHT31;56575;48.942;8.404;2022-10-16T15:13:19;25.41;64.31
69387;SHT31;56575;48.942;8.404;2022-10-16T15:15:46;25.63;63.82
69387;SHT31;56575;48.942;8.404;2022-10-16T15:18:12;25.43;64.22
69387;SHT31;56575;48.942;8.404;2022-10-16T15:20:40;25.47;64.35
69387;SHT31;56575;48.942;8.404;2022-10-16T15:23:15;24.91;67.29
69387;SHT31;56575;48.942;8.404;2022-10-16T15:25:46;24.48;68.02
69387;SHT31;56575;48.942;8.404;2022-10-16T15:28:13;24.07;71.69
69387;SHT31;56575;48.942;8.404;2022-10-16T15:30:40;23.70;70.33
69387;SHT31;56575;48.942;8.404;2022-10-16T15:33:12;23.39;72.39
69387;SHT31;56575;48.942;8.404;2022-10-16T15:35:38;23.07;73.12
69387;SHT31;56575;48.942;8.404;2022-10-16T15:38:03;22.83;73.98
69387;SHT31;56575;48.942;8.404;2022-10-16T15:40:29;22.64;74.54
69387;SHT31;56575;48.942;8.404;2022-10-16T15:42:54;22.50;75.37
69387;SHT31;56575;48.942;8.404;2022-10-16T15:45:20;22.30;76.24
69387;SHT31;56575;48.942;8.404;2022-10-16T15:47:45;22.16;77.76
69387;SHT31;56575;48.942;8.404;2022-10-16T15:50:12;22.02;77.29
69387;SHT31;56575;48.942;8.404;2022-10-16T15:52:39;21.91;78.78
69387;SHT31;56575;48.942;8.404;2022-10-16T15:55:14;21.78;79.46
69387;SHT31;56575;48.942;8.404;2022-10-16T15:57:39;21.67;80.11
69387;SHT31;56575;48.942;8.404;2022-10-16T16:00:09;21.58;80.11
69387;SHT31;56575;48.942;8.404;2022-10-16T16:02:35;21.49;80.67
69387;SHT31;56575;48.942;8.404;2022-10-16T16:05:01;21.40;81.23
69387;SHT31;56575;48.942;8.404;2022-10-16T16:07:27;21.37;81.94
69387;SHT31;56575;48.942;8.404;2022-10-16T16:09:52;21.25;81.84
69387;SHT31;56575;48.942;8.404;2022-10-16T16:12:18;21.19;81.48
69387;SHT31;56575;48.942;8.404;2022-10-16T16:14:43;21.08;82.62
69387;SHT31;56575;48.942;8.404;2022-10-16T16:17:11;21.01;82.38
69387;SHT31;56575;48.942;8.404;2022-10-16T16:19:36;20.92;83.18
69387;SHT31;56575;48.942;8.404;2022-10-16T16:22:02;20.84;83.21
69387;SHT31;56575;48.942;8.404;2022-10-16T16:24:27;20.75;83.65
69387;SHT31;56575;48.942;8.404;2022-10-16T16:26:53;20.64;83.40
69387;SHT31;56575;48.942;8.404;2022-10-16T16:29:18;20.51;84.34
69387;SHT31;56575;48.942;8.404;2022-10-16T16:31:44;20.41;84.13
69387;SHT31;56575;48.942;8.404;2022-10-16T16:34:11;20.33;84.00
69387;SHT31;56575;48.942;8.404;2022-10-16T16:36:36;20.25;84.91
69387;SHT31;56575;48.942;8.404;2022-10-16T16:39:02;20.19;84.55
69387;SHT31;56575;48.942;8.404;2022-10-16T16:41:29;20.11;84.83
69387;SHT31;56575;48.942;8.404;2022-10-16T16:43:56;19.99;85.33
69387;SHT31;56575;48.942;8.404;2022-10-16T16:46:26;19.93;85.12
69387;SHT31;56575;48.942;8.404;2022-10-16T16:48:51;19.86;84.98
69387;SHT31;56575;48.942;8.404;2022-10-16T16:51:18;19.79;85.41
69387;SHT31;56575;48.942;8.404;2022-10-16T16:53:47;19.77;85.56
69387;SHT31;56575;48.942;8.404;2022-10-16T16:56:13;19.67;85.39
69387;SHT31;56575;48.942;8.404;2022-10-16T16:58:39;19.57;85.74
69387;SHT31;56575;48.942;8.404;2022-10-16T17:01:05;19.54;86.00
69387;SHT31;56575;48.942;8.404;2022-10-16T17:03:33;19.49;86.05